createdAt,value
2023-03-20T00:01:03.279Z,15.67
2023-03-20T00:06:05.608Z,15.80
2023-03-20T00:11:17.230Z,16.50
2023-03-20T00:16:20.532Z,17.40
2023-03-20T00:21:22.343Z,17.47
2023-03-20T00:26:26.576Z,18.40
2023-03-20T00:31:30.410Z,21.47
2023-03-20T00:36:32.261Z,20.10
2023-03-20T00:41:37.862Z,19.87
2023-03-20T00:46:41.447Z,21.97
2023-03-20T00:51:43.199Z,22.40
2023-03-20T00:56:45.754Z,22.70
2023-03-20T01:01:48.936Z,22.37
2023-03-20T01:06:50.831Z,24.80
2023-03-20T01:11:54.095Z,23.03
2023-03-20T01:16:57.234Z,24.23
2023-03-20T01:21:59.123Z,22.97
2023-03-20T01:27:04.054Z,23.20
2023-03-20T01:32:09.638Z,22.77
2023-03-20T01:37:12.437Z,23.97
2023-03-20T01:42:14.289Z,23.73
2023-03-20T01:47:19.869Z,26.03
2023-03-20T01:52:22.026Z,25.67
2023-03-20T01:57:24.346Z,27.73
2023-03-20T02:02:29.439Z,25.60
2023-03-20T02:07:31.938Z,26.20
2023-03-20T02:12:38.550Z,27.00
2023-03-20T02:17:43.544Z,28.33
2023-03-20T02:23:21.120Z,26.57
2023-03-20T02:28:54.216Z,27.93
2023-03-20T02:34:19.309Z,26.90
2023-03-20T02:39:32.376Z,26.90
2023-03-20T02:44:36.842Z,26.60
2023-03-20T02:49:49.037Z,26.37
2023-03-20T02:54:55.339Z,27.83
2023-03-20T03:00:00.109Z,26.83
2023-03-20T03:05:03.546Z,28.77
2023-03-20T03:10:08.562Z,29.67
2023-03-20T03:15:13.583Z,29.40
2023-03-20T03:20:19.870Z,29.43
2023-03-20T03:25:24.186Z,31.30
2023-03-20T03:30:27.093Z,31.10
2023-03-20T03:35:31.123Z,30.10
2023-03-20T03:40:35.589Z,30.53
2023-03-20T03:45:38.694Z,30.83
2023-03-20T03:50:46.382Z,30.87
2023-03-20T03:55:50.814Z,30.37
2023-03-20T04:00:52.962Z,30.40
2023-03-20T04:05:54.896Z,29.77
2023-03-20T04:10:57.913Z,31.03
2023-03-20T04:15:59.626Z,31.07
2023-03-20T04:21:03.252Z,29.87
2023-03-20T04:26:06.903Z,28.00
2023-03-20T04:31:10.269Z,31.10
2023-03-20T04:36:21.654Z,28.90
2023-03-20T04:41:26.498Z,29.30
2023-03-20T04:46:30.817Z,28.40
2023-03-20T04:51:33.275Z,27.10
2023-03-20T04:56:36.479Z,25.37
2023-03-20T05:01:51.224Z,27.17
2023-03-20T05:06:53.132Z,24.10
2023-03-20T05:11:59.019Z,25.07
2023-03-20T05:17:36.353Z,22.73
2023-03-20T05:22:56.447Z,21.90
2023-03-20T05:28:18.224Z,20.83
2023-03-20T05:33:28.017Z,19.67
2023-03-20T05:38:43.426Z,19.93
2023-03-20T05:43:57.135Z,19.13
2023-03-20T05:49:17.383Z,17.40
2023-03-20T05:54:37.858Z,18.27
2023-03-20T05:59:59.416Z,17.00
2023-03-20T06:05:19.587Z,16.73
2023-03-20T06:10:27.526Z,16.03
2023-03-20T06:15:30.689Z,16.30
2023-03-20T06:20:41.863Z,18.07
2023-03-20T06:25:44.104Z,16.20
2023-03-20T06:30:47.724Z,16.57
2023-03-20T06:35:54.389Z,19.50
2023-03-20T06:40:57.425Z,19.30
2023-03-20T06:46:00.484Z,19.50
2023-03-20T06:51:04.801Z,16.80
2023-03-20T06:56:11.888Z,19.20
2023-03-20T07:01:17.772Z,19.87
2023-03-20T07:06:19.667Z,20.20
2023-03-20T07:11:22.385Z,20.30
2023-03-20T07:16:28.603Z,20.40
2023-03-20T07:21:30.622Z,20.80
2023-03-20T07:26:32.850Z,21.00
2023-03-20T07:31:36.399Z,22.67
2023-03-20T07:36:44.804Z,22.70
2023-03-20T07:41:50.674Z,23.50
2023-03-20T07:47:06.021Z,24.23
2023-03-20T07:52:07.847Z,23.07
2023-03-20T07:57:09.696Z,24.07
2023-03-20T08:02:15.277Z,22.70
2023-03-20T08:07:16.926Z,22.93
2023-03-20T08:12:18.803Z,22.77
2023-03-20T08:17:22.119Z,22.80
2023-03-20T08:22:23.884Z,20.90
2023-03-20T08:27:25.902Z,21.83
2023-03-20T08:32:29.002Z,20.97
2023-03-20T08:37:30.682Z,21.27
2023-03-20T08:42:33.046Z,19.47
2023-03-20T08:47:36.141Z,16.70
2023-03-20T08:52:37.806Z,16.40
2023-03-20T08:57:39.436Z,17.03
2023-03-20T09:02:42.542Z,16.33
2023-03-20T09:07:44.299Z,17.80
2023-03-20T09:12:46.061Z,16.73
2023-03-20T09:17:49.045Z,16.70
2023-03-20T09:22:50.765Z,17.57
2023-03-20T09:27:55.149Z,18.03
2023-03-20T09:32:58.213Z,18.17
2023-03-20T09:37:59.935Z,18.40
2023-03-20T09:43:05.350Z,17.63
2023-03-20T09:48:11.582Z,18.10
2023-03-20T09:53:15.445Z,19.90
2023-03-20T09:58:20.607Z,18.13
2023-03-20T10:03:26.941Z,16.07
2023-03-20T10:08:29.607Z,16.10
2023-03-20T10:13:52.218Z,14.27
2023-03-20T10:18:59.172Z,13.07
2023-03-20T10:24:03.251Z,12.23
2023-03-20T10:29:06.713Z,11.57
2023-03-20T10:34:17.662Z,13.00
2023-03-20T10:39:22.120Z,13.40
2023-03-20T10:44:27.378Z,14.73
2023-03-20T10:49:34.503Z,15.63
2023-03-20T10:54:38.932Z,15.43
2023-03-20T10:59:42.096Z,16.03
2023-03-20T11:04:45.165Z,17.60
2023-03-20T11:09:46.838Z,17.00
2023-03-20T11:14:48.512Z,16.83
2023-03-20T11:19:51.462Z,17.20
2023-03-20T11:24:54.123Z,15.67
2023-03-20T11:29:56.014Z,15.17
2023-03-20T11:35:18.654Z,13.47
2023-03-20T11:40:22.782Z,14.00
2023-03-20T11:45:25.562Z,13.27
2023-03-20T11:50:31.348Z,13.93
2023-03-20T11:55:33.481Z,13.07
2023-03-20T12:00:36.904Z,13.50
2023-03-20T12:05:40.094Z,12.60
2023-03-20T12:10:42.844Z,11.63
2023-03-20T12:15:45.957Z,11.53
2023-03-20T12:20:54.053Z,11.43
2023-03-20T12:25:57.331Z,10.73
2023-03-20T12:31:04.729Z,10.33
2023-03-20T12:36:11.409Z,8.20
2023-03-20T12:41:15.266Z,9.17
2023-03-20T12:46:23.471Z,7.97
2023-03-20T12:51:31.828Z,8.73
2023-03-20T12:56:46.263Z,6.93
2023-03-20T13:01:52.879Z,7.10
2023-03-20T13:06:56.782Z,6.63
2023-03-20T13:12:00.511Z,6.73
2023-03-20T13:17:04.496Z,6.90
2023-03-20T13:22:08.728Z,6.93
2023-03-20T13:27:23.689Z,6.80
2023-03-20T13:32:31.214Z,6.60
2023-03-20T13:37:36.033Z,7.30
2023-03-20T13:42:39.318Z,6.80
2023-03-20T13:47:41.045Z,7.07
2023-03-20T13:52:46.268Z,5.80
2023-03-20T13:58:03.701Z,6.77
2023-03-20T14:03:15.335Z,6.80
2023-03-20T14:08:23.014Z,6.87
2023-03-20T14:13:27.459Z,6.90
2023-03-20T14:18:30.122Z,7.07
2023-03-20T14:23:35.534Z,6.60
2023-03-20T14:28:53.651Z,6.80
2023-03-20T14:34:09.463Z,6.47
2023-03-20T14:39:15.585Z,5.80
2023-03-20T14:44:24.148Z,5.60
2023-03-20T14:49:46.440Z,5.27
2023-03-20T14:54:53.891Z,5.70
2023-03-20T14:59:55.667Z,6.00
2023-03-20T15:04:57.663Z,5.77
2023-03-20T15:10:02.857Z,5.77
2023-03-20T15:15:05.706Z,5.60
2023-03-20T15:20:12.792Z,6.93
2023-03-20T15:25:18.492Z,5.90
2023-03-20T15:30:21.113Z,5.93
2023-03-20T15:35:23.611Z,5.63
2023-03-20T15:40:37.087Z,5.23
2023-03-20T15:45:45.624Z,5.10
2023-03-20T15:50:50.460Z,5.30
2023-03-20T15:56:16.933Z,8.40
2023-03-20T16:01:20.746Z,5.90
2023-03-20T16:06:22.925Z,5.07
2023-03-20T16:11:33.569Z,5.90
2023-03-20T16:16:37.475Z,5.60
2023-03-20T16:21:40.350Z,5.53
2023-03-20T16:26:44.862Z,5.53
2023-03-20T16:31:52.981Z,4.67
2023-03-20T16:36:57.404Z,5.33
2023-03-20T16:42:11.693Z,4.60
2023-03-20T16:47:17.595Z,4.53
2023-03-20T16:52:22.347Z,5.20
2023-03-20T16:57:25.807Z,4.60
2023-03-20T17:02:29.617Z,5.13
2023-03-20T17:07:31.316Z,4.87
2023-03-20T17:12:36.578Z,5.87
2023-03-20T17:17:38.366Z,5.20
2023-03-20T17:22:40.142Z,4.53
2023-03-20T17:27:44.000Z,9.03
2023-03-20T17:32:46.312Z,5.47
2023-03-20T17:37:48.822Z,4.20
2023-03-20T17:42:52.165Z,4.53
2023-03-20T17:47:54.136Z,4.90
2023-03-20T17:52:55.867Z,4.53
2023-03-20T17:57:58.879Z,4.50
2023-03-20T18:03:00.546Z,4.90
2023-03-20T18:08:02.684Z,7.00
2023-03-20T18:13:05.752Z,4.83
2023-03-20T18:18:08.955Z,4.60
2023-03-20T18:23:10.853Z,5.73
2023-03-20T18:28:22.693Z,5.83
2023-03-20T18:33:27.537Z,5.77
2023-03-20T18:38:30.602Z,5.70
2023-03-20T18:43:33.795Z,7.30
2023-03-20T18:48:35.684Z,8.60
2023-03-20T18:53:38.031Z,8.23
2023-03-20T18:58:41.347Z,7.77
2023-03-20T19:03:43.344Z,8.80
2023-03-20T19:08:45.359Z,36.70
2023-03-20T19:13:50.742Z,12.07
2023-03-20T19:18:53.043Z,9.90
2023-03-20T19:23:56.869Z,21.53
2023-03-20T19:29:01.351Z,12.47
2023-03-20T19:34:03.364Z,13.57
2023-03-20T19:39:06.429Z,12.20
2023-03-20T19:44:09.610Z,12.10
2023-03-20T19:49:17.948Z,11.10
2023-03-20T19:54:19.905Z,9.70
2023-03-20T19:59:23.353Z,10.43
2023-03-20T20:04:25.064Z,10.10
2023-03-20T20:09:28.556Z,10.33
2023-03-20T20:14:35.134Z,11.10
2023-03-20T20:19:37.062Z,11.40
2023-03-20T20:24:39.242Z,12.40
2023-03-20T20:29:42.487Z,13.27
2023-03-20T20:40:08.726Z,13.10
2023-03-20T20:45:12.370Z,14.10
2023-03-20T20:50:14.934Z,12.97
2023-03-20T20:55:36.691Z,12.70
2023-03-20T21:00:51.243Z,11.57
2023-03-20T21:05:53.556Z,11.90
2023-03-20T21:10:55.275Z,11.40
2023-03-20T21:15:58.948Z,12.73
2023-03-20T21:21:04.659Z,12.77
2023-03-20T21:26:07.283Z,13.33
2023-03-20T21:31:24.567Z,13.00
2023-03-20T21:36:28.444Z,12.73
2023-03-20T21:41:30.194Z,12.50
2023-03-20T21:58:02.473Z,14.10
2023-03-20T22:02:43.717Z,15.80
2023-03-20T22:08:46.876Z,16.17
2023-03-20T22:19:34.279Z,17.50
2023-03-20T22:24:44.868Z,18.67
2023-03-20T22:30:00.611Z,17.70
2023-03-20T22:35:30.900Z,19.10
2023-03-20T22:50:28.970Z,23.97
2023-03-20T22:55:30.646Z,24.83
2023-03-20T23:00:32.341Z,24.10
2023-03-20T23:05:37.384Z,25.90
2023-03-20T23:10:58.620Z,26.20
2023-03-20T23:16:00.315Z,27.37
2023-03-20T23:21:03.586Z,27.47
2023-03-20T23:26:06.120Z,27.97
2023-03-20T23:31:11.209Z,29.20
2023-03-20T23:36:28.850Z,29.93
2023-03-20T23:42:02.435Z,31.57
2023-03-20T23:46:59.753Z,31.07
2023-03-20T23:52:04.379Z,30.20
2023-03-20T23:57:06.270Z,31.90
